createdAt,value
2023-06-19T00:02:16.373Z,28.00
2023-06-19T00:04:43.782Z,28.20
2023-06-19T00:07:11.163Z,28.50
2023-06-19T00:09:38.563Z,27.90
2023-06-19T00:12:06.641Z,27.90
2023-06-19T00:14:34.053Z,28.00
2023-06-19T00:17:01.942Z,28.00
2023-06-19T00:19:29.595Z,28.00
2023-06-19T00:21:58.248Z,28.00
2023-06-19T00:24:25.707Z,28.60
2023-06-19T00:26:53.142Z,28.50
2023-06-19T00:29:20.547Z,28.50
2023-06-19T00:31:47.983Z,28.20
2023-06-19T00:34:16.304Z,27.80
2023-06-19T00:36:44.349Z,27.90
2023-06-19T00:39:11.924Z,27.90
2023-06-19T00:41:40.464Z,27.90
2023-06-19T00:44:07.881Z,27.90
2023-06-19T00:46:38.805Z,28.60
2023-06-19T00:49:06.811Z,28.10
2023-06-19T00:51:34.765Z,28.10
2023-06-19T00:54:02.564Z,28.00
2023-06-19T00:56:30.008Z,28.50
2023-06-19T00:58:59.495Z,27.80
2023-06-19T01:01:28.549Z,27.80
2023-06-19T01:03:57.500Z,28.20
2023-06-19T01:06:39.256Z,27.50
2023-06-19T01:09:11.590Z,28.10
2023-06-19T01:11:45.541Z,27.80
2023-06-19T01:14:22.253Z,27.40
2023-06-19T01:16:49.891Z,27.50
2023-06-19T01:19:21.429Z,27.40
2023-06-19T01:21:50.623Z,27.40
2023-06-19T01:24:19.027Z,28.00
2023-06-19T01:26:47.011Z,27.40
2023-06-19T01:29:16.525Z,27.40
2023-06-19T01:31:51.848Z,27.60
2023-06-19T01:34:21.555Z,27.60
2023-06-19T01:36:50.821Z,27.50
2023-06-19T01:39:20.621Z,26.90
2023-06-19T01:41:49.111Z,26.90
2023-06-19T01:44:16.692Z,26.90
2023-06-19T01:46:52.145Z,27.00
2023-06-19T01:49:19.795Z,26.90
2023-06-19T01:51:47.433Z,26.90
2023-06-19T01:54:15.493Z,27.50
2023-06-19T01:56:42.949Z,26.90
2023-06-19T01:59:10.325Z,27.50
2023-06-19T02:01:37.775Z,27.00
2023-06-19T02:04:05.514Z,27.00
2023-06-19T02:06:33.153Z,27.00
2023-06-19T02:09:00.850Z,27.00
2023-06-19T02:11:28.301Z,27.10
2023-06-19T02:13:56.252Z,27.00
2023-06-19T02:16:24.093Z,27.60
2023-06-19T02:18:52.253Z,27.00
2023-06-19T02:21:19.703Z,27.60
2023-06-19T02:23:47.159Z,27.30
2023-06-19T02:26:14.565Z,27.00
2023-06-19T02:28:42.354Z,27.00
2023-06-19T02:31:09.778Z,27.50
2023-06-19T02:33:39.070Z,26.90
2023-06-19T02:36:06.589Z,26.90
2023-06-19T02:38:34.033Z,26.80
2023-06-19T02:41:02.476Z,27.30
2023-06-19T02:43:31.093Z,26.70
2023-06-19T02:45:58.590Z,27.10
2023-06-19T02:48:26.052Z,26.60
2023-06-19T02:50:54.826Z,26.60
2023-06-19T02:53:22.325Z,26.50
2023-06-19T02:55:49.678Z,27.10
2023-06-19T02:58:17.269Z,26.60
2023-06-19T03:00:45.735Z,26.40
2023-06-19T03:03:13.386Z,26.40
2023-06-19T03:05:40.979Z,26.40
2023-06-19T03:08:08.452Z,26.40
2023-06-19T03:10:36.346Z,26.30
2023-06-19T03:13:03.702Z,26.40
2023-06-19T03:15:31.151Z,26.20
2023-06-19T03:17:59.017Z,26.80
2023-06-19T03:20:27.766Z,26.50
2023-06-19T03:22:58.648Z,26.00
2023-06-19T03:25:27.858Z,26.40
2023-06-19T03:27:55.232Z,26.50
2023-06-19T03:30:23.657Z,26.30
2023-06-19T03:32:53.066Z,25.90
2023-06-19T03:35:37.505Z,25.90
2023-06-19T03:38:05.283Z,26.50
2023-06-19T03:40:32.653Z,26.50
2023-06-19T03:43:06.973Z,25.90
2023-06-19T03:45:34.661Z,26.50
2023-06-19T03:48:02.072Z,26.60
2023-06-19T03:50:29.497Z,26.60
2023-06-19T03:52:56.951Z,26.10
2023-06-19T03:55:24.468Z,26.40
2023-06-19T03:57:51.971Z,26.10
2023-06-19T04:00:20.084Z,26.10
2023-06-19T04:02:50.591Z,26.10
2023-06-19T04:05:18.512Z,26.60
2023-06-19T04:07:46.155Z,26.40
2023-06-19T04:10:15.824Z,26.10
2023-06-19T04:12:43.279Z,26.10
2023-06-19T04:15:11.190Z,26.10
2023-06-19T04:17:38.740Z,26.10
2023-06-19T04:20:12.011Z,26.10
2023-06-19T04:22:41.682Z,26.10
2023-06-19T04:25:11.667Z,26.10
2023-06-19T04:27:39.284Z,26.10
2023-06-19T04:30:10.003Z,26.40
2023-06-19T04:32:37.643Z,26.10
2023-06-19T04:35:05.507Z,26.30
2023-06-19T04:37:32.809Z,26.10
2023-06-19T04:40:00.220Z,26.10
2023-06-19T04:42:28.399Z,26.40
2023-06-19T04:44:56.457Z,26.10
2023-06-19T04:47:30.578Z,26.60
2023-06-19T04:50:01.470Z,26.10
2023-06-19T04:52:29.574Z,26.10
2023-06-19T04:54:57.293Z,26.10
2023-06-19T04:57:25.245Z,26.10
2023-06-19T04:59:52.678Z,26.20
2023-06-19T05:02:20.780Z,26.20
2023-06-19T05:04:48.306Z,26.20
2023-06-19T05:07:16.656Z,26.30
2023-06-19T05:09:44.253Z,26.70
2023-06-19T05:12:12.297Z,26.40
2023-06-19T05:14:40.144Z,26.50
2023-06-19T05:17:07.669Z,26.50
2023-06-19T05:19:35.183Z,26.60
2023-06-19T05:22:02.590Z,26.90
2023-06-19T05:24:30.305Z,26.70
2023-06-19T05:26:57.675Z,26.80
2023-06-19T05:29:25.781Z,26.90
2023-06-19T05:31:53.116Z,27.00
2023-06-19T05:34:20.570Z,27.50
2023-06-19T05:36:48.471Z,27.30
2023-06-19T05:39:15.993Z,27.40
2023-06-19T05:41:44.609Z,27.50
2023-06-19T05:44:15.249Z,28.20
2023-06-19T05:46:42.928Z,28.40
2023-06-19T05:49:10.460Z,28.10
2023-06-19T05:51:38.202Z,28.30
2023-06-19T05:54:05.712Z,28.50
2023-06-19T05:56:34.384Z,28.70
2023-06-19T05:59:05.588Z,29.30
2023-06-19T06:01:33.134Z,29.00
2023-06-19T06:04:02.658Z,29.10
2023-06-19T06:06:30.113Z,29.80
2023-06-19T06:08:57.475Z,29.80
2023-06-19T06:11:24.781Z,29.40
2023-06-19T06:13:52.105Z,29.90
2023-06-19T06:16:19.507Z,29.50
2023-06-19T06:18:47.224Z,29.60
2023-06-19T06:21:14.739Z,29.60
2023-06-19T06:23:42.799Z,30.10
2023-06-19T06:26:10.815Z,30.40
2023-06-19T06:28:39.719Z,30.20
2023-06-19T06:31:07.496Z,30.50
2023-06-19T06:33:34.840Z,30.70
2023-06-19T06:36:02.744Z,30.30
2023-06-19T06:38:30.475Z,30.40
2023-06-19T06:40:57.901Z,30.50
2023-06-19T06:43:25.538Z,31.10
2023-06-19T06:45:53.849Z,30.60
2023-06-19T06:48:21.854Z,30.70
2023-06-19T06:50:49.392Z,30.80
2023-06-19T06:53:17.101Z,31.50
2023-06-19T06:55:48.225Z,31.10
2023-06-19T06:58:15.790Z,31.10
2023-06-19T07:00:43.631Z,31.30
2023-06-19T07:03:11.772Z,31.50
2023-06-19T07:05:39.298Z,31.70
2023-06-19T07:08:06.705Z,31.70
2023-06-19T07:10:34.067Z,31.80
2023-06-19T07:13:01.408Z,32.00
2023-06-19T07:15:28.942Z,32.00
2023-06-19T07:17:57.556Z,32.20
2023-06-19T07:20:25.204Z,32.30
2023-06-19T07:22:54.552Z,32.60
2023-06-19T07:25:25.256Z,33.10
2023-06-19T07:27:52.933Z,32.60
2023-06-19T07:30:20.760Z,32.80
2023-06-19T07:32:48.402Z,32.80
2023-06-19T07:35:16.005Z,32.90
2023-06-19T07:37:43.513Z,33.00
2023-06-19T07:40:11.515Z,33.10
2023-06-19T07:42:39.030Z,33.10
2023-06-19T07:45:06.942Z,33.20
2023-06-19T07:47:34.568Z,33.20
2023-06-19T07:50:02.049Z,33.70
2023-06-19T07:52:29.530Z,33.30
2023-06-19T07:54:58.168Z,33.30
2023-06-19T07:57:27.041Z,33.20
2023-06-19T07:59:55.817Z,33.20
2023-06-19T08:02:23.518Z,33.10
2023-06-19T08:04:51.022Z,33.10
2023-06-19T08:07:18.479Z,33.60
2023-06-19T08:09:48.293Z,33.10
2023-06-19T08:12:19.427Z,33.10
2023-06-19T08:14:46.763Z,33.10
2023-06-19T08:17:14.173Z,33.40
2023-06-19T08:19:43.738Z,33.70
2023-06-19T08:22:11.334Z,33.30
2023-06-19T08:24:41.032Z,33.30
2023-06-19T08:27:10.800Z,33.50
2023-06-19T08:29:38.227Z,33.50
2023-06-19T08:32:06.563Z,33.60
2023-06-19T08:34:33.896Z,33.70
2023-06-19T08:37:01.251Z,34.20
2023-06-19T08:39:28.686Z,34.00
2023-06-19T08:41:56.490Z,34.20
2023-06-19T08:44:23.979Z,34.30
2023-06-19T08:46:51.507Z,34.40
2023-06-19T08:49:18.872Z,34.70
2023-06-19T08:51:46.854Z,34.70
2023-06-19T08:54:14.458Z,34.80
2023-06-19T08:56:43.936Z,34.90
2023-06-19T08:59:14.515Z,35.10
2023-06-19T09:01:54.370Z,35.30
2023-06-19T09:04:28.530Z,35.40
2023-06-19T09:07:01.501Z,35.50
2023-06-19T09:09:45.257Z,35.70
2023-06-19T09:12:15.331Z,35.70
2023-06-19T09:14:46.725Z,35.90
2023-06-19T09:17:20.441Z,36.20
2023-06-19T09:19:52.640Z,36.10
2023-06-19T09:22:22.995Z,36.30
2023-06-19T09:24:51.161Z,36.50
2023-06-19T09:27:20.491Z,36.70
2023-06-19T09:29:49.609Z,36.90
2023-06-19T09:32:24.112Z,37.20
2023-06-19T09:34:54.869Z,37.20
2023-06-19T09:37:31.100Z,37.40
2023-06-19T09:40:02.345Z,37.80
2023-06-19T09:42:34.957Z,37.70
2023-06-19T09:45:05.363Z,37.70
2023-06-19T09:47:46.979Z,37.70
2023-06-19T09:50:18.393Z,37.80
2023-06-19T09:52:52.237Z,37.80
2023-06-19T09:55:20.463Z,37.80
2023-06-19T09:57:49.683Z,37.70
2023-06-19T10:00:23.096Z,37.60
2023-06-19T10:02:51.476Z,37.50
2023-06-19T10:05:29.866Z,37.50
2023-06-19T10:08:00.754Z,37.40
2023-06-19T10:10:32.239Z,37.30
2023-06-19T10:13:14.047Z,37.20
2023-06-19T10:15:44.060Z,37.00
2023-06-19T10:18:19.238Z,37.00
2023-06-19T10:20:47.904Z,36.80
2023-06-19T10:23:18.696Z,36.70
2023-06-19T10:25:49.016Z,36.60
2023-06-19T10:28:24.653Z,36.50
2023-06-19T10:31:00.226Z,36.50
2023-06-19T10:33:29.785Z,36.40
2023-06-19T10:35:58.641Z,36.20
2023-06-19T10:38:26.143Z,36.20
2023-06-19T10:40:53.754Z,36.20
2023-06-19T10:43:26.305Z,36.20
2023-06-19T10:45:54.071Z,36.10
2023-06-19T10:48:24.660Z,36.30
2023-06-19T10:50:52.641Z,36.00
2023-06-19T10:53:33.294Z,36.00
2023-06-19T10:56:02.948Z,35.90
2023-06-19T10:58:30.404Z,35.80
2023-06-19T11:00:58.146Z,36.30
2023-06-19T11:03:25.810Z,35.60
2023-06-19T11:05:53.592Z,35.50
2023-06-19T11:08:23.368Z,35.40
2023-06-19T11:10:51.826Z,35.50
2023-06-19T11:13:20.551Z,35.50
2023-06-19T11:15:52.250Z,35.40
2023-06-19T11:18:20.225Z,35.30
2023-06-19T11:20:52.363Z,35.30
2023-06-19T11:23:27.965Z,35.30
2023-06-19T11:25:56.096Z,35.30
2023-06-19T11:28:23.581Z,35.30
2023-06-19T11:31:05.129Z,35.30
2023-06-19T11:33:34.406Z,35.30
2023-06-19T11:36:02.634Z,35.30
2023-06-19T11:38:30.993Z,35.30
2023-06-19T11:40:58.435Z,35.20
2023-06-19T11:43:26.606Z,35.40
2023-06-19T11:46:00.612Z,35.20
2023-06-19T11:48:28.871Z,35.20
2023-06-19T11:50:56.362Z,35.30
2023-06-19T11:53:25.476Z,35.70
2023-06-19T11:55:53.441Z,35.80
2023-06-19T11:58:22.404Z,35.30
2023-06-19T12:00:51.321Z,35.50
2023-06-19T12:03:19.106Z,35.30
2023-06-19T12:05:46.674Z,35.30
2023-06-19T12:08:14.827Z,35.30
2023-06-19T12:10:42.960Z,35.30
2023-06-19T12:13:10.408Z,35.20
2023-06-19T12:15:38.136Z,35.30
2023-06-19T12:18:08.105Z,35.30
2023-06-19T12:20:35.532Z,35.20
2023-06-19T12:23:04.108Z,35.00
2023-06-19T12:25:31.529Z,35.40
2023-06-19T12:27:58.916Z,34.80
2023-06-19T12:30:26.503Z,34.80
2023-06-19T12:32:54.593Z,35.00
2023-06-19T12:35:23.453Z,34.70
2023-06-19T12:37:51.024Z,34.70
2023-06-19T12:40:18.977Z,34.70
2023-06-19T12:42:47.310Z,34.60
2023-06-19T12:45:14.775Z,34.60
2023-06-19T12:47:42.280Z,34.70
2023-06-19T12:50:10.047Z,34.60
2023-06-19T12:52:37.495Z,34.60
2023-06-19T12:55:05.423Z,34.60
2023-06-19T12:57:32.888Z,34.60
2023-06-19T13:00:00.445Z,34.90
2023-06-19T13:02:28.161Z,34.60
2023-06-19T13:04:55.767Z,34.50
2023-06-19T13:07:23.195Z,34.40
2023-06-19T13:09:50.741Z,34.40
2023-06-19T13:12:18.249Z,34.50
2023-06-19T13:14:45.608Z,34.30
2023-06-19T13:17:13.028Z,34.30
2023-06-19T13:19:40.461Z,34.70
2023-06-19T13:22:08.205Z,34.40
2023-06-19T13:24:35.811Z,34.30
2023-06-19T13:27:03.392Z,34.30
2023-06-19T13:29:30.859Z,34.30
2023-06-19T13:31:58.273Z,34.30
2023-06-19T13:34:25.670Z,34.30
2023-06-19T13:36:53.187Z,34.40
2023-06-19T13:39:20.539Z,34.40
2023-06-19T13:41:48.849Z,34.40
2023-06-19T13:44:16.254Z,35.00
2023-06-19T13:46:43.943Z,34.40
2023-06-19T13:49:12.051Z,34.40
2023-06-19T13:51:39.558Z,35.00
2023-06-19T13:54:07.366Z,34.40
2023-06-19T13:56:34.704Z,34.60
2023-06-19T13:59:02.040Z,34.60
2023-06-19T14:01:30.915Z,34.70
2023-06-19T14:03:58.956Z,34.60
2023-06-19T14:06:26.472Z,34.70
2023-06-19T14:08:57.810Z,34.70
2023-06-19T14:11:25.139Z,34.70
2023-06-19T14:13:52.605Z,35.10
2023-06-19T14:16:20.551Z,34.70
2023-06-19T14:18:48.003Z,34.70
2023-06-19T14:21:15.432Z,35.20
2023-06-19T14:23:44.213Z,34.70
2023-06-19T14:26:12.674Z,34.70
2023-06-19T14:28:40.340Z,34.60
2023-06-19T14:31:08.365Z,34.60
2023-06-19T14:33:38.059Z,34.50
2023-06-19T14:36:06.089Z,34.60
2023-06-19T14:38:35.201Z,34.60
2023-06-19T14:44:35.191Z,34.50
2023-06-19T14:47:03.017Z,34.60
2023-06-19T14:49:30.535Z,34.50
2023-06-19T14:51:58.075Z,34.60
2023-06-19T14:54:25.476Z,34.60
2023-06-19T14:56:53.138Z,34.60
2023-06-19T14:59:20.612Z,35.00
2023-06-19T15:01:48.531Z,34.60
2023-06-19T15:04:16.407Z,34.70
2023-06-19T15:06:44.086Z,34.60
2023-06-19T15:09:11.617Z,34.90
2023-06-19T15:11:39.187Z,34.70
2023-06-19T15:14:06.608Z,34.70
2023-06-19T15:16:36.024Z,34.60
2023-06-19T15:19:05.398Z,34.70
2023-06-19T15:21:32.885Z,34.60
2023-06-19T15:24:00.212Z,34.60
2023-06-19T15:26:27.588Z,34.80
2023-06-19T15:28:55.485Z,34.60
2023-06-19T15:31:23.952Z,34.60
2023-06-19T15:33:51.796Z,34.60
2023-06-19T15:36:19.538Z,34.60
2023-06-19T15:38:47.155Z,34.60
2023-06-19T15:41:15.026Z,34.60
2023-06-19T15:43:43.147Z,34.80
2023-06-19T15:46:10.709Z,34.50
2023-06-19T15:48:38.463Z,34.40
2023-06-19T15:51:06.242Z,34.40
2023-06-19T15:53:34.045Z,34.30
2023-06-19T15:56:01.800Z,34.40
2023-06-19T15:58:29.452Z,34.80
2023-06-19T16:00:56.939Z,34.40
2023-06-19T16:03:24.545Z,34.30
2023-06-19T16:08:26.305Z,34.40
2023-06-19T16:10:53.740Z,34.30
2023-06-19T16:13:21.252Z,34.80
2023-06-19T16:15:48.680Z,34.40
2023-06-19T16:18:16.689Z,34.40
2023-06-19T16:20:44.488Z,34.60
2023-06-19T16:23:11.947Z,34.40
2023-06-19T16:25:39.603Z,34.30
2023-06-19T16:28:07.384Z,34.40
2023-06-19T16:30:35.172Z,34.40
2023-06-19T16:33:02.706Z,34.30
2023-06-19T16:35:30.094Z,34.60
2023-06-19T16:37:57.468Z,34.90
2023-06-19T16:40:26.215Z,34.40
2023-06-19T16:42:54.750Z,34.20
2023-06-19T16:45:24.761Z,34.60
2023-06-19T16:47:52.264Z,34.10
2023-06-19T16:50:19.691Z,34.40
2023-06-19T16:52:49.127Z,34.20
2023-06-19T16:55:16.570Z,34.10
2023-06-19T16:57:44.401Z,34.10
2023-06-19T17:00:12.425Z,34.10
2023-06-19T17:02:39.906Z,34.10
2023-06-19T17:05:07.749Z,34.70
2023-06-19T17:07:35.106Z,34.10
2023-06-19T17:10:03.672Z,34.10
2023-06-19T17:12:34.126Z,34.60
2023-06-19T17:15:01.724Z,34.10
2023-06-19T17:17:30.070Z,34.20
2023-06-19T17:19:57.548Z,34.10
2023-06-19T17:22:24.890Z,34.10
2023-06-19T17:24:52.351Z,34.10
2023-06-19T17:27:19.964Z,34.10
2023-06-19T17:29:47.442Z,34.10
2023-06-19T17:32:15.247Z,34.20
2023-06-19T17:34:42.787Z,34.00
2023-06-19T17:37:10.188Z,34.60
2023-06-19T17:39:37.671Z,34.20
2023-06-19T17:42:06.074Z,34.00
2023-06-19T17:44:33.503Z,34.00
2023-06-19T17:47:01.351Z,34.20
2023-06-19T17:49:28.793Z,34.50
2023-06-19T17:51:56.682Z,33.90
2023-06-19T17:54:24.963Z,33.80
2023-06-19T17:56:52.497Z,33.80
2023-06-19T17:59:20.637Z,34.10
2023-06-19T18:01:50.470Z,34.00
2023-06-19T18:04:17.854Z,34.10
2023-06-19T18:09:35.382Z,33.60
2023-06-19T18:12:02.854Z,33.60
2023-06-19T18:14:30.776Z,33.60
2023-06-19T18:17:02.484Z,33.60
2023-06-19T18:19:30.017Z,33.80
2023-06-19T18:21:57.998Z,33.50
2023-06-19T18:24:25.692Z,33.40
2023-06-19T18:26:53.069Z,33.10
2023-06-19T18:29:21.749Z,33.40
2023-06-19T18:31:50.936Z,33.50
2023-06-19T18:34:18.467Z,33.60
2023-06-19T18:36:45.985Z,33.40
2023-06-19T18:39:13.393Z,33.40
2023-06-19T18:41:41.090Z,33.30
2023-06-19T18:44:08.747Z,33.50
2023-06-19T18:46:36.170Z,33.30
2023-06-19T18:49:03.627Z,33.20
2023-06-19T18:51:31.326Z,33.20
2023-06-19T18:53:59.392Z,33.20
2023-06-19T18:56:27.158Z,33.30
2023-06-19T18:58:54.527Z,33.20
2023-06-19T19:01:21.915Z,33.20
2023-06-19T19:03:49.333Z,33.40
2023-06-19T19:06:18.390Z,33.30
2023-06-19T19:08:46.368Z,33.00
2023-06-19T19:11:13.737Z,33.00
2023-06-19T19:13:41.177Z,33.00
2023-06-19T19:16:08.557Z,33.10
2023-06-19T19:18:35.940Z,33.00
2023-06-19T19:21:03.547Z,33.10
2023-06-19T19:23:30.931Z,32.80
2023-06-19T19:25:58.451Z,32.80
2023-06-19T19:28:25.813Z,32.80
2023-06-19T19:30:53.113Z,32.70
2023-06-19T19:33:20.573Z,32.60
2023-06-19T19:35:48.228Z,32.60
2023-06-19T19:38:18.459Z,32.60
2023-06-19T19:40:46.165Z,32.60
2023-06-19T19:43:14.766Z,32.60
2023-06-19T19:45:42.293Z,32.50
2023-06-19T19:48:09.846Z,32.50
2023-06-19T19:50:37.203Z,32.40
2023-06-19T19:53:04.659Z,32.40
2023-06-19T19:55:32.480Z,32.40
2023-06-19T19:58:02.026Z,32.30
2023-06-19T20:00:29.845Z,32.20
2023-06-19T20:02:57.388Z,32.20
2023-06-19T20:05:24.913Z,32.40
2023-06-19T20:07:52.244Z,32.10
2023-06-19T20:10:20.247Z,32.00
2023-06-19T20:12:47.675Z,32.20
2023-06-19T20:15:15.573Z,32.00
2023-06-19T20:17:43.234Z,31.90
2023-06-19T20:20:11.237Z,31.90
2023-06-19T20:22:38.571Z,31.90
2023-06-19T20:25:07.794Z,31.80
2023-06-19T20:27:35.229Z,31.80
2023-06-19T20:30:03.103Z,31.70
2023-06-19T20:32:31.184Z,31.70
2023-06-19T20:34:58.629Z,31.60
2023-06-19T20:37:26.047Z,31.50
2023-06-19T20:39:55.232Z,31.50
2023-06-19T20:42:22.789Z,31.50
2023-06-19T20:44:50.774Z,31.40
2023-06-19T20:47:19.893Z,31.30
2023-06-19T20:49:48.060Z,31.50
2023-06-19T20:52:15.938Z,31.40
2023-06-19T20:54:43.878Z,31.30
2023-06-19T20:57:11.277Z,31.20
2023-06-19T20:59:38.680Z,30.90
2023-06-19T21:02:06.358Z,30.80
2023-06-19T21:04:34.626Z,30.80
2023-06-19T21:07:02.146Z,30.80
2023-06-19T21:09:29.714Z,30.60
2023-06-19T21:11:57.072Z,30.60
2023-06-19T21:14:24.660Z,30.80
2023-06-19T21:16:52.647Z,30.50
2023-06-19T21:19:20.196Z,30.40
2023-06-19T21:21:48.527Z,30.40
2023-06-19T21:24:17.221Z,30.50
2023-06-19T21:26:45.240Z,30.30
2023-06-19T21:29:13.928Z,30.40
2023-06-19T21:31:43.481Z,30.20
2023-06-19T21:34:10.886Z,30.20
2023-06-19T21:36:38.289Z,30.00
2023-06-19T21:39:05.776Z,30.10
2023-06-19T21:41:33.433Z,30.00
2023-06-19T21:44:03.885Z,29.80
2023-06-19T21:46:31.329Z,29.70
2023-06-19T21:49:01.505Z,29.90
2023-06-19T21:51:29.065Z,29.60
2023-06-19T21:53:56.519Z,29.50
2023-06-19T21:56:24.145Z,29.50
2023-06-19T21:58:51.781Z,29.50
2023-06-19T22:01:19.885Z,29.60
2023-06-19T22:03:47.460Z,29.70
2023-06-19T22:06:15.390Z,29.40
2023-06-19T22:08:43.432Z,29.40
2023-06-19T22:11:10.880Z,29.30
2023-06-19T22:13:38.336Z,29.40
2023-06-19T22:16:06.065Z,29.20
2023-06-19T22:18:33.878Z,29.20
2023-06-19T22:21:02.551Z,29.40
2023-06-19T22:23:29.899Z,29.50
2023-06-19T22:25:57.353Z,29.40
2023-06-19T22:28:24.757Z,29.10
2023-06-19T22:30:52.159Z,29.30
2023-06-19T22:33:19.892Z,28.90
2023-06-19T22:35:47.816Z,29.00
2023-06-19T22:38:15.289Z,28.90
2023-06-19T22:40:42.647Z,28.80
2023-06-19T22:43:09.967Z,28.80
2023-06-19T22:45:37.433Z,29.10
2023-06-19T22:48:04.963Z,28.80
2023-06-19T22:50:32.390Z,28.80
2023-06-19T22:53:00.187Z,28.80
2023-06-19T22:55:28.200Z,29.00
2023-06-19T22:57:55.763Z,29.00
2023-06-19T23:00:23.088Z,29.00
2023-06-19T23:02:50.619Z,29.00
2023-06-19T23:05:18.387Z,28.70
2023-06-19T23:07:45.723Z,28.70
2023-06-19T23:10:13.037Z,28.60
2023-06-19T23:12:40.443Z,28.90
2023-06-19T23:15:08.478Z,28.70
2023-06-19T23:17:36.128Z,28.50
2023-06-19T23:20:08.554Z,28.40
2023-06-19T23:22:36.180Z,28.40
2023-06-19T23:25:03.663Z,28.40
2023-06-19T23:27:31.117Z,28.40
2023-06-19T23:29:58.694Z,28.30
2023-06-19T23:32:26.571Z,28.50
2023-06-19T23:34:54.376Z,28.30
2023-06-19T23:37:21.734Z,28.30
2023-06-19T23:39:49.340Z,28.30
2023-06-19T23:42:16.698Z,28.30
2023-06-19T23:44:44.271Z,28.60
2023-06-19T23:47:11.675Z,28.30
2023-06-19T23:49:39.265Z,28.50
2023-06-19T23:52:08.050Z,28.20
2023-06-19T23:54:35.371Z,28.20
2023-06-19T23:57:02.909Z,28.40
2023-06-19T23:59:30.267Z,28.10
